createdAt,value
2022-09-07T00:00:26.179Z,10.77
2022-09-07T00:01:28.438Z,11.77
2022-09-07T00:02:30.553Z,11.82
2022-09-07T00:03:32.947Z,11.88
2022-09-07T00:04:35.166Z,9.70
2022-09-07T00:05:44.841Z,10.00
2022-09-07T00:06:47.127Z,9.10
2022-09-07T00:07:51.907Z,11.93
2022-09-07T00:08:57.025Z,11.10
2022-09-07T00:10:01.509Z,9.13
2022-09-07T00:11:12.957Z,10.10
2022-09-07T00:12:17.940Z,10.75
2022-09-07T00:13:23.274Z,8.75
2022-09-07T00:14:28.099Z,14.35
2022-09-07T00:15:33.240Z,9.10
2022-09-07T00:16:38.365Z,10.82
2022-09-07T00:17:42.518Z,12.23
2022-09-07T00:18:46.717Z,11.73
2022-09-07T00:19:50.430Z,9.95
2022-09-07T00:21:10.750Z,9.63
2022-09-07T00:22:15.041Z,8.93
2022-09-07T00:23:17.679Z,10.15
2022-09-07T00:24:19.890Z,9.30
2022-09-07T00:25:22.147Z,8.68
2022-09-07T00:26:29.842Z,10.38
2022-09-07T00:27:32.193Z,10.93
2022-09-07T00:28:35.171Z,12.18
2022-09-07T00:29:37.258Z,9.40
2022-09-07T00:30:43.112Z,8.30
2022-09-07T00:31:45.440Z,9.23
2022-09-07T00:32:47.623Z,9.38
2022-09-07T00:33:51.892Z,9.77
2022-09-07T00:34:54.017Z,9.23
2022-09-07T00:35:57.738Z,8.15
2022-09-07T00:37:00.148Z,13.25
2022-09-07T00:38:02.256Z,11.70
2022-09-07T00:39:04.920Z,10.48
2022-09-07T00:40:07.665Z,10.35
2022-09-07T00:41:10.566Z,12.05
2022-09-07T00:42:12.815Z,11.57
2022-09-07T00:43:34.120Z,10.18
2022-09-07T00:44:59.901Z,9.35
2022-09-07T00:46:04.272Z,10.43
2022-09-07T00:47:17.606Z,12.68
2022-09-07T00:48:20.849Z,10.80
2022-09-07T00:49:24.028Z,11.60
2022-09-07T00:50:51.406Z,10.10
2022-09-07T00:51:58.048Z,10.32
2022-09-07T00:53:24.208Z,11.57
2022-09-07T00:54:34.362Z,9.67
2022-09-07T00:55:39.332Z,10.63
2022-09-07T00:56:44.017Z,10.98
2022-09-07T00:57:50.134Z,9.05
2022-09-07T00:58:53.230Z,10.35
2022-09-07T00:59:57.707Z,8.95
2022-09-07T01:00:59.815Z,10.13
2022-09-07T01:02:02.840Z,11.80
2022-09-07T01:03:05.906Z,9.73
2022-09-07T01:04:09.306Z,12.63
2022-09-07T01:05:23.432Z,10.00
2022-09-07T01:06:32.181Z,13.00
2022-09-07T01:07:35.236Z,13.20
2022-09-07T01:08:37.747Z,10.38
2022-09-07T01:09:40.882Z,10.38
2022-09-07T01:10:46.835Z,9.80
2022-09-07T01:11:53.266Z,11.80
2022-09-07T01:12:55.423Z,14.13
2022-09-07T01:14:00.352Z,10.43
2022-09-07T01:15:03.260Z,11.43
2022-09-07T01:16:26.642Z,10.27
2022-09-07T01:17:43.771Z,10.63
2022-09-07T01:19:19.029Z,10.00
2022-09-07T01:20:39.183Z,11.40
2022-09-07T01:21:53.666Z,10.55
2022-09-07T01:23:19.482Z,11.93
2022-09-07T01:24:33.562Z,9.82
2022-09-07T01:26:04.923Z,11.52
2022-09-07T01:27:07.030Z,10.63
2022-09-07T01:28:28.278Z,15.38
2022-09-07T01:29:42.581Z,12.97
2022-09-07T01:31:19.839Z,9.50
2022-09-07T01:32:34.038Z,11.43
2022-09-07T01:33:57.636Z,9.32
2022-09-07T01:35:02.375Z,10.20
2022-09-07T01:36:17.842Z,10.55
2022-09-07T01:37:28.621Z,11.63
2022-09-07T01:38:33.613Z,10.48
2022-09-07T01:39:48.463Z,12.13
2022-09-07T01:40:59.564Z,12.00
2022-09-07T01:42:08.435Z,10.63
2022-09-07T01:43:17.368Z,9.98
2022-09-07T01:44:36.312Z,12.63
2022-09-07T01:45:41.495Z,12.20
2022-09-07T01:46:46.726Z,10.48
2022-09-07T01:47:58.636Z,10.63
2022-09-07T01:49:38.667Z,8.68
2022-09-07T01:51:03.593Z,10.05
2022-09-07T01:52:12.963Z,11.40
2022-09-07T01:53:32.414Z,12.00
2022-09-07T01:54:44.584Z,11.30
2022-09-07T01:55:57.832Z,10.63
2022-09-07T01:57:09.120Z,9.65
2022-09-07T01:58:32.731Z,9.60
2022-09-07T01:59:40.596Z,10.20
2022-09-07T02:00:51.229Z,10.32
2022-09-07T02:02:13.820Z,10.13
2022-09-07T02:03:21.715Z,12.32
2022-09-07T02:04:54.884Z,11.95
2022-09-07T02:06:16.834Z,8.95
2022-09-07T02:07:24.965Z,10.67
2022-09-07T02:08:38.247Z,9.30
2022-09-07T02:09:54.874Z,11.13
2022-09-07T02:11:02.400Z,11.75
2022-09-07T02:12:11.044Z,10.95
2022-09-07T02:13:31.286Z,9.90
2022-09-07T02:14:43.053Z,11.50
2022-09-07T02:15:58.382Z,13.15
2022-09-07T02:17:18.510Z,10.57
2022-09-07T02:18:22.428Z,10.43
2022-09-07T02:19:28.799Z,11.13
2022-09-07T02:20:37.008Z,11.70
2022-09-07T02:21:43.862Z,11.35
2022-09-07T02:22:50.413Z,11.10
2022-09-07T02:23:56.926Z,13.40
2022-09-07T02:25:03.431Z,10.73
2022-09-07T02:26:16.991Z,10.45
2022-09-07T02:27:24.763Z,11.95
2022-09-07T02:28:38.462Z,11.07
2022-09-07T02:29:40.833Z,9.00
2022-09-07T02:30:43.496Z,10.17
2022-09-07T02:31:46.004Z,12.30
2022-09-07T02:32:49.013Z,11.32
2022-09-07T02:33:51.415Z,9.63
2022-09-07T02:34:53.509Z,9.98
2022-09-07T02:35:55.862Z,10.95
2022-09-07T02:37:01.061Z,13.55
2022-09-07T02:38:05.304Z,10.90
2022-09-07T02:39:07.629Z,11.25
2022-09-07T02:40:10.728Z,9.60
2022-09-07T02:41:33.581Z,9.47
2022-09-07T02:42:38.133Z,12.13
2022-09-07T02:43:40.248Z,10.48
2022-09-07T02:44:45.706Z,12.02
2022-09-07T02:46:06.293Z,11.63
2022-09-07T02:47:34.239Z,10.25
2022-09-07T02:48:48.453Z,10.55
2022-09-07T02:50:14.563Z,11.02
2022-09-07T02:51:35.557Z,9.18
2022-09-07T02:52:52.396Z,12.43
2022-09-07T02:54:09.600Z,11.40
2022-09-07T02:55:30.103Z,12.38
2022-09-07T02:56:37.252Z,11.80
2022-09-07T02:58:02.884Z,10.32
2022-09-07T02:59:38.060Z,12.73
2022-09-07T03:01:00.904Z,11.43
2022-09-07T03:02:15.717Z,10.05
2022-09-07T03:03:26.267Z,11.25
2022-09-07T03:05:02.367Z,10.73
2022-09-07T03:06:14.763Z,9.55
2022-09-07T03:07:27.481Z,10.23
2022-09-07T03:08:34.699Z,11.00
2022-09-07T03:09:44.575Z,9.98
2022-09-07T03:10:51.106Z,8.85
2022-09-07T03:11:56.585Z,10.63
2022-09-07T03:13:01.157Z,11.25
2022-09-07T03:14:27.037Z,13.63
2022-09-07T03:15:31.043Z,10.30
2022-09-07T03:16:33.773Z,11.30
2022-09-07T03:17:36.026Z,12.65
2022-09-07T03:18:38.241Z,11.77
2022-09-07T03:19:40.701Z,10.70
2022-09-07T03:20:43.172Z,13.00
2022-09-07T03:21:45.833Z,13.30
2022-09-07T03:22:49.508Z,14.98
2022-09-07T03:23:52.011Z,12.82
2022-09-07T03:24:54.292Z,11.85
2022-09-07T03:25:56.513Z,11.18
2022-09-07T03:26:59.294Z,11.98
2022-09-07T03:28:01.439Z,10.60
2022-09-07T03:29:03.667Z,11.30
2022-09-07T03:30:07.019Z,11.93
2022-09-07T03:31:09.337Z,9.95
2022-09-07T03:32:11.490Z,10.98
2022-09-07T03:33:16.058Z,14.98
2022-09-07T03:34:18.279Z,12.23
2022-09-07T03:35:20.601Z,10.48
2022-09-07T03:36:24.325Z,10.45
2022-09-07T03:37:26.758Z,11.70
2022-09-07T03:38:30.805Z,10.63
2022-09-07T03:39:33.607Z,12.87
2022-09-07T03:40:36.138Z,12.05
2022-09-07T03:41:38.764Z,12.40
2022-09-07T03:42:41.523Z,12.63
2022-09-07T03:43:43.819Z,10.32
2022-09-07T03:44:45.933Z,10.23
2022-09-07T03:45:48.128Z,13.60
2022-09-07T03:46:50.382Z,11.60
2022-09-07T03:47:52.575Z,10.90
2022-09-07T03:48:54.660Z,12.57
2022-09-07T03:49:56.876Z,9.47
2022-09-07T03:51:10.139Z,12.43
2022-09-07T03:52:12.528Z,11.23
2022-09-07T03:53:14.703Z,10.20
2022-09-07T03:54:16.880Z,11.63
2022-09-07T03:55:19.126Z,12.23
2022-09-07T03:56:23.686Z,23.58
2022-09-07T03:57:25.768Z,47.83
2022-09-07T03:58:30.840Z,497.02
2022-09-07T03:59:33.576Z,327.45
2022-09-07T04:00:36.232Z,256.63
2022-09-07T04:01:38.535Z,96.55
2022-09-07T04:02:40.860Z,102.82
2022-09-07T04:03:44.088Z,54.50
2022-09-07T04:04:46.310Z,23.20
2022-09-07T04:05:48.406Z,26.35
2022-09-07T04:06:51.411Z,21.95
2022-09-07T04:07:54.649Z,22.10
2022-09-07T04:09:10.414Z,27.88
2022-09-07T04:10:15.267Z,17.40
2022-09-07T04:11:20.038Z,15.47
2022-09-07T04:12:23.953Z,13.07
2022-09-07T04:13:29.080Z,19.27
2022-09-07T04:14:32.572Z,15.52
2022-09-07T04:15:35.947Z,16.23
2022-09-07T04:16:40.801Z,13.70
2022-09-07T04:17:44.707Z,13.88
2022-09-07T04:18:50.930Z,13.35
2022-09-07T04:19:53.311Z,14.55
2022-09-07T04:20:59.252Z,14.15
2022-09-07T04:22:01.392Z,18.03
2022-09-07T04:23:03.562Z,16.80
2022-09-07T04:24:06.045Z,19.30
2022-09-07T04:25:08.597Z,15.80
2022-09-07T04:26:19.539Z,14.40
2022-09-07T04:27:21.593Z,14.10
2022-09-07T04:28:24.169Z,15.43
2022-09-07T04:29:26.338Z,15.55
2022-09-07T04:30:28.756Z,14.05
2022-09-07T04:31:35.383Z,14.68
2022-09-07T04:32:39.262Z,18.60
2022-09-07T04:33:42.243Z,19.60
2022-09-07T04:34:44.488Z,20.83
2022-09-07T04:35:47.150Z,22.30
2022-09-07T04:36:49.428Z,24.73
2022-09-07T04:37:51.626Z,22.83
2022-09-07T04:39:00.080Z,21.58
2022-09-07T04:40:02.563Z,20.30
2022-09-07T04:41:13.491Z,19.33
2022-09-07T04:42:16.325Z,18.85
2022-09-07T04:43:18.653Z,17.87
2022-09-07T04:44:21.178Z,16.50
2022-09-07T04:45:23.851Z,16.25
2022-09-07T04:46:28.350Z,16.08
2022-09-07T04:47:31.095Z,14.15
2022-09-07T04:48:33.337Z,12.20
2022-09-07T04:49:36.309Z,12.15
2022-09-07T04:50:38.424Z,10.27
2022-09-07T04:51:43.005Z,14.77
2022-09-07T04:52:46.376Z,13.45
2022-09-07T04:53:54.127Z,12.10
2022-09-07T04:54:56.518Z,11.50
2022-09-07T04:55:59.706Z,10.30
2022-09-07T04:57:02.027Z,15.30
2022-09-07T04:58:04.382Z,12.85
2022-09-07T04:59:06.598Z,10.95
2022-09-07T05:00:10.618Z,11.40
2022-09-07T05:01:15.214Z,12.57
2022-09-07T05:02:19.558Z,15.02
2022-09-07T05:03:22.318Z,13.75
2022-09-07T05:04:26.173Z,14.63
2022-09-07T05:05:29.237Z,12.57
2022-09-07T05:06:31.758Z,13.48
2022-09-07T05:07:36.569Z,16.17
2022-09-07T05:08:41.765Z,14.27
2022-09-07T05:09:43.953Z,14.55
2022-09-07T05:10:53.567Z,13.85
2022-09-07T05:11:55.934Z,13.15
2022-09-07T05:12:58.319Z,11.50
2022-09-07T05:14:02.397Z,11.80
2022-09-07T05:15:05.094Z,11.67
2022-09-07T05:16:15.788Z,13.23
2022-09-07T05:17:19.433Z,11.48
2022-09-07T05:18:21.572Z,11.02
2022-09-07T05:19:23.822Z,11.80
2022-09-07T05:20:26.112Z,11.20
2022-09-07T05:21:30.963Z,11.65
2022-09-07T05:22:35.711Z,13.65
2022-09-07T05:23:38.137Z,12.88
2022-09-07T05:24:40.259Z,12.38
2022-09-07T05:25:46.624Z,13.43
2022-09-07T05:26:48.835Z,11.38
2022-09-07T05:27:50.968Z,11.00
2022-09-07T05:31:40.774Z,9.90
2022-09-07T05:32:45.539Z,10.73
2022-09-07T05:35:22.235Z,10.13
2022-09-07T05:36:29.183Z,12.25
2022-09-07T05:37:31.316Z,9.57
2022-09-07T05:38:37.164Z,9.98
2022-09-07T05:39:39.335Z,12.98
2022-09-07T05:40:41.547Z,12.50
2022-09-07T05:41:43.816Z,8.73
2022-09-07T05:42:45.938Z,15.93
2022-09-07T05:45:11.823Z,16.85
2022-09-07T05:46:15.139Z,14.07
2022-09-07T05:47:17.361Z,12.73
2022-09-07T05:48:19.532Z,13.07
2022-09-07T05:49:21.717Z,11.15
2022-09-07T05:50:23.960Z,15.85
2022-09-07T05:51:26.094Z,12.85
2022-09-07T05:52:28.948Z,20.50
2022-09-07T05:53:34.046Z,16.38
2022-09-07T05:54:36.314Z,22.17
2022-09-07T05:55:38.518Z,15.05
2022-09-07T05:56:40.744Z,15.43
2022-09-07T05:57:42.985Z,12.85
2022-09-07T05:58:49.393Z,13.70
2022-09-07T05:59:51.593Z,11.90
2022-09-07T06:00:57.652Z,14.80
2022-09-07T06:02:00.164Z,15.05
2022-09-07T06:03:02.893Z,15.82
2022-09-07T06:04:05.243Z,13.52
2022-09-07T06:05:11.207Z,15.13
2022-09-07T06:06:18.982Z,13.13
2022-09-07T06:07:22.661Z,13.40
2022-09-07T06:08:25.351Z,15.35
2022-09-07T06:09:30.551Z,12.87
2022-09-07T06:10:44.881Z,12.05
2022-09-07T06:11:47.526Z,12.35
2022-09-07T06:12:49.829Z,14.60
2022-09-07T06:13:52.304Z,11.10
2022-09-07T06:14:54.470Z,12.43
2022-09-07T06:16:03.014Z,14.18
2022-09-07T06:17:05.909Z,14.20
2022-09-07T06:18:08.209Z,11.98
2022-09-07T06:19:10.686Z,16.90
2022-09-07T06:20:12.904Z,13.10
2022-09-07T06:21:23.451Z,10.98
2022-09-07T06:22:28.936Z,13.73
2022-09-07T06:23:34.154Z,11.57
2022-09-07T06:24:36.358Z,14.32
2022-09-07T06:25:38.543Z,15.02
2022-09-07T06:26:40.832Z,11.90
2022-09-07T06:27:43.050Z,11.82
2022-09-07T06:28:49.630Z,11.07
2022-09-07T06:29:52.531Z,15.25
2022-09-07T06:31:02.394Z,11.17
2022-09-07T06:33:27.090Z,11.90
2022-09-07T06:34:29.367Z,12.98
2022-09-07T06:35:31.569Z,11.55
2022-09-07T06:36:34.193Z,12.80
2022-09-07T06:37:36.394Z,10.13
2022-09-07T06:38:39.620Z,9.63
2022-09-07T06:39:41.879Z,13.43
2022-09-07T06:40:44.077Z,13.95
2022-09-07T06:42:01.601Z,12.27
2022-09-07T06:43:05.983Z,10.43
2022-09-07T06:44:08.149Z,12.02
2022-09-07T06:45:11.573Z,11.65
2022-09-07T06:47:37.271Z,9.73
2022-09-07T06:48:43.817Z,9.80
2022-09-07T06:49:46.765Z,12.48
2022-09-07T06:51:04.469Z,9.23
2022-09-07T06:52:06.654Z,12.60
2022-09-07T06:55:53.762Z,10.73
2022-09-07T06:56:55.960Z,11.52
2022-09-07T06:57:58.154Z,12.05
2022-09-07T06:59:00.349Z,11.35
2022-09-07T07:00:02.729Z,11.48
2022-09-07T07:01:07.711Z,11.48
2022-09-07T07:02:12.627Z,9.07
2022-09-07T07:03:14.961Z,8.93
2022-09-07T07:04:17.172Z,11.10
2022-09-07T07:05:19.315Z,14.00
2022-09-07T07:06:21.729Z,8.80
2022-09-07T07:07:23.879Z,9.80
2022-09-07T07:08:26.425Z,8.95
2022-09-07T07:09:28.714Z,9.35
2022-09-07T07:10:31.123Z,9.70
2022-09-07T07:11:33.287Z,8.75
2022-09-07T07:13:40.918Z,9.65
2022-09-07T07:14:45.084Z,10.07
2022-09-07T07:15:47.671Z,11.77
2022-09-07T07:16:50.344Z,12.85
2022-09-07T07:17:58.411Z,12.85
2022-09-07T07:19:04.675Z,12.77
2022-09-07T07:20:08.493Z,11.23
2022-09-07T07:21:13.647Z,11.90
2022-09-07T07:22:43.077Z,13.02
2022-09-07T07:23:39.948Z,13.25
2022-09-07T07:24:42.517Z,10.20
2022-09-07T07:25:44.734Z,12.50
2022-09-07T07:26:48.760Z,9.52
2022-09-07T07:27:51.084Z,8.73
2022-09-07T07:29:03.874Z,10.93
2022-09-07T07:30:07.044Z,10.75
2022-09-07T07:31:13.107Z,10.77
2022-09-07T07:32:16.002Z,10.95
2022-09-07T07:33:18.185Z,10.77
2022-09-07T07:34:21.231Z,10.80
2022-09-07T07:35:23.866Z,11.18
